Relevés horaires Matro (Suisse)


Relevés horaires à Matro - Lundi 26 Janv. 2015
Heure UTC1 Température [°C] Vent [km/h] Hum. [%] Pres.4 [hPa] Visi. [Km] Nébu. [octa] Préc.5 [mm] Cond.
2m. Res. Ros. Dir.2 Vit. Moy. Raf.3
23:00 -5.0 -12.2 -6.6 ONO 24.1 27.8 35.2 88 850(-0.4/3h) -- -- -- --
22:00 -4.8 -12.7 -7.1 ONO 29.6 29.6 38.9 84 850(-0.4/3h) -- -- -- --
21:00 -4.9 -12.3 -7.5 ONO 25.9 29.6 37.0 82 850(-0.5/3h) -- -- -- --
20:00 -5.4 -12.7 -7.7 ONO 24.1 29.6 37.0 84 850(0.0/3h) -- -- -- --
19:00 -6.0 -13.5 -8.5 ONO 24.1 24.1 31.5 82 850(0.2/3h) -- -- -- --
18:00 -7.0 -13.8 -10.3 NO 18.5 22.2 29.6 77 850(0.2/3h) -- -- -- --
17:00 -7.8 -14.8 -11.2 NO 18.5 20.4 27.8 76 850(-0.4/3h) -- -- -- --
16:00 -7.7 -15.4 -11.6 NNO 22.2 22.2 27.8 73 850(-1.1/3h) -- -- -- --
15:00 -8.3 -15 -11.7 NO 16.7 20.4 29.6 76 850(-1.4/3h) -- -- -- --
14:00 -8.4 -15.2 -15.3 NO 16.7 16.7 24.1 57 850(-1.4/3h) -- -- -- --
13:00 -8.3 -15 -20.4 NNO 16.7 18.5 27.8 37 850(-1.2/3h) -- -- -- --
12:00 -8.8 -12.8 -19.4 NO 7.4 37.0 57.4 42 850(-0.5/3h) -- -- -- --
11:00 -8.7 -15.9 -21.0 NNO 18.5 22.2 31.5 36 850(0.1/3h) -- -- -- --
10:00 -8.8 -16 -20.4 NO 18.5 24.1 42.6 38 850(0.4/3h) -- -- -- --
09:00 -9.8 -17.3 -20.2 NO 18.5 37.0 57.4 42 850(0.5/3h) -- -- -- --
08:00 -10.4 -19.7 -19.8 NNO 27.8 37.0 57.4 46 850(0.4/3h) -- -- -- --
07:00 -10.5 -20.4 -19.8 NO 31.5 35.2 53.7 46 850(0.3/3h) -- -- -- --
06:00 -10.6 -20.5 -19.0 NNO 31.5 40.7 53.7 50 850(0.0/3h) -- -- -- --
05:00 -10.5 -21.3 -19.7 NNO 38.9 40.7 53.7 47 850(-0.2/3h) -- -- -- --
04:00 -10.5 -20.6 -20.2 NO 33.3 35.2 48.2 45 850(-0.2/3h) -- -- -- --
03:00 -10.4 -20.3 -20.6 NNO 31.5 38.9 53.7 43 850(-0.2/3h) -- -- -- --
02:00 -10.6 -20.5 -19.5 NO 31.5 35.2 48.2 48 850(-0.4/3h) -- -- -- --
01:00 -10.8 -21.3 -19.3 NO 35.2 38.9 48.2 49 850(-0.2/3h) -- -- -- --
00:00 -11.1 -22.1 -19.1 NNO 38.9 55.6 83.3 51 850(0.0/3h) -- -- -- --

1 Coordinated Universal Time. Actuellement il est 14:00 locale et 12:00 UTC.

2 Le vent souffle depuis la direction indiquée vers la direction oposée.

3 Les rafales max. sont disponible 40 min après l'heure du relevé.

4 Pour les stations d'altitude (plus de 600m) le géopotentiel du niveau le plus proche de la pression obligatoire est indiqué.

5 Les stations disposant d'un diffuseur peuvent indiquer "trace". Cela signifie que des précipitations ont touchés le sol mais que la quantité est inférieure à 0.1 mm.

Copyright

Les données affichées sur cette page sont la propriété exclusive de Météo Suisse.

Récapitulatif de la journée
Température [°C] Vent [km/h] Ensoleillement4 [h] Precipitations totale5 [mm] Pression [Hpa]
Min1 Max.2 Moy.3 Max. Min Max.
-12.0 -6.6 30.8 83.3 2 h 12 min 0 850.0 850.0

1 Température minimale relevée entre 18:00 UTC la veille et 18:00 UTC le jour donné.

2 Température maximale relevée entre 06:00 UTC le jour donné et 06:00 UTC le lendemain.

3 Vent moyen de la journée basé sur les relevés horaires.

4 Ensoleillement en heures relevé entre 06:00 UTC la veille et 06:00 UTC le jour donné.

5 Précipitations totales tombées entre 06:00 UTC la jour donné et 06:00 UTC le lendemain.

Graphiques horaires